Alto Crest, New Mexico
Current Conditions -  °F | °C
As of 4:35 PM on Saturday 20 Dec 2014 (Local Time) from KSRR Reporting Station
Clear Clear  
Wind Chill: 32°   Ceiling: Unl
Heat Index: 39°   Visibility: 10mi
Dew Point: 18°   Wind: 13mph
Humidity: 42%   Direction: 300°WNW
Pressure: 30.07"   Gusts: 20mph
Location:  33.3909°N, 105.634°W
Report Text: KSRR 202335Z AUTO 30011G17KT 10SM CLR 04/M08 A3007 RMK AO2
Loading
Personal Weather Stations






























Interactive Weather Map New forecast layout! Learn more

10-Day Weather Forecast

Advertisements
Track Severe Weather on mobile